Terminal Aerodrome Forecast
Issued by NWS Corpus Christi, TX

Current Version | Previous Version | Text Only | Print | Product List | Glossary Off
Versions: 1 2 3 4 5 6 7 8 9 10 11 12 13 14 15 16 17

000
FTUS44 KCRP 311100
TAFCRP
TAF
KCRP 311129Z 3112/0112 03004KT P6SM SCT012 BKN060 BKN100
      TEMPO 3112/3115 03012G25KT 4SM -TSRA BR BKN012CB OVC060
     FM311500 02014KT P6SM BKN050 BKN100
     FM312000 03015KT P6SM SCT070
     FM010000 02012KT P6SM SKC=

USA.gov is the U.S. government's official web portal to all federal, state and local government web resources and services.